sensor_id;sensor_type;location;lat;lon;timestamp;pressure;altitude;pressure_sealevel;temperature;humidity
56514;BME280;62152;52.078;8.414;2023-05-09T00:00:22;100449.47;;;19.91;52.13
56514;BME280;62152;52.078;8.414;2023-05-09T00:04:23;100445.91;;;19.90;52.22
56514;BME280;62152;52.078;8.414;2023-05-09T00:08:24;100448.69;;;19.90;52.21
56514;BME280;62152;52.078;8.414;2023-05-09T00:12:25;100436.84;;;19.90;52.14
56514;BME280;62152;52.078;8.414;2023-05-09T00:16:27;100438.81;;;19.89;51.68
56514;BME280;62152;52.078;8.414;2023-05-09T00:20:28;100434.09;;;19.90;51.40
56514;BME280;62152;52.078;8.414;2023-05-09T00:24:29;100427.00;;;19.89;51.66
56514;BME280;62152;52.078;8.414;2023-05-09T00:28:30;100422.28;;;19.89;51.61
56514;BME280;62152;52.078;8.414;2023-05-09T00:32:32;100412.44;;;19.88;51.73
56514;BME280;62152;52.078;8.414;2023-05-09T00:36:33;100419.91;;;19.88;51.87
56514;BME280;62152;52.078;8.414;2023-05-09T00:40:34;100406.16;;;19.88;51.78
56514;BME280;62152;52.078;8.414;2023-05-09T00:44:35;100395.94;;;19.88;51.31
56514;BME280;62152;52.078;8.414;2023-05-09T00:48:37;100383.34;;;19.87;51.60
56514;BME280;62152;52.078;8.414;2023-05-09T00:52:38;100384.13;;;19.88;51.67
56514;BME280;62152;52.078;8.414;2023-05-09T00:56:39;100384.91;;;19.88;51.55
56514;BME280;62152;52.078;8.414;2023-05-09T01:00:40;100381.38;;;19.88;51.23
56514;BME280;62152;52.078;8.414;2023-05-09T01:04:43;100381.38;;;19.88;51.36
56514;BME280;62152;52.078;8.414;2023-05-09T01:08:52;100377.84;;;19.87;51.72
56514;BME280;62152;52.078;8.414;2023-05-09T01:13:15;100369.56;;;19.87;51.34
56514;BME280;62152;52.078;8.414;2023-05-09T01:17:35;100362.09;;;19.88;51.28
56514;BME280;62152;52.078;8.414;2023-05-09T01:21:43;100359.75;;;19.86;51.69
56514;BME280;62152;52.078;8.414;2023-05-09T01:25:54;100355.03;;;19.87;51.00
56514;BME280;62152;52.078;8.414;2023-05-09T01:30:02;100344.81;;;19.87;51.04
56514;BME280;62152;52.078;8.414;2023-05-09T01:34:06;100337.72;;;19.86;51.09
56514;BME280;62152;52.078;8.414;2023-05-09T01:38:13;100337.72;;;19.86;51.45
56514;BME280;62152;52.078;8.414;2023-05-09T01:42:20;100334.97;;;19.86;51.17
56514;BME280;62152;52.078;8.414;2023-05-09T01:46:24;100334.97;;;19.86;51.24
56514;BME280;62152;52.078;8.414;2023-05-09T01:50:28;100334.97;;;19.86;50.95
56514;BME280;62152;52.078;8.414;2023-05-09T01:54:31;100328.25;;;19.84;51.19
56514;BME280;62152;52.078;8.414;2023-05-09T01:58:34;100332.22;;;19.86;51.22
56514;BME280;62152;52.078;8.414;2023-05-09T02:02:40;100323.94;;;19.86;51.07
56514;BME280;62152;52.078;8.414;2023-05-09T02:06:43;100321.19;;;19.86;51.37
56514;BME280;62152;52.078;8.414;2023-05-09T02:10:48;100322.38;;;19.85;51.40
56514;BME280;62152;52.078;8.414;2023-05-09T02:14:49;100314.13;;;19.85;51.10
56514;BME280;62152;52.078;8.414;2023-05-09T02:18:51;100314.13;;;19.85;50.82
56514;BME280;62152;52.078;8.414;2023-05-09T02:22:52;100314.13;;;19.85;51.21
56514;BME280;62152;52.078;8.414;2023-05-09T02:26:54;100314.50;;;19.84;50.64
56514;BME280;62152;52.078;8.414;2023-05-09T02:30:58;100301.53;;;19.84;51.33
56514;BME280;62152;52.078;8.414;2023-05-09T02:35:07;100306.25;;;19.84;50.67
56514;BME280;62152;52.078;8.414;2023-05-09T02:39:11;100303.50;;;19.84;51.34
56514;BME280;62152;52.078;8.414;2023-05-09T02:43:12;100306.25;;;19.84;51.39
56514;BME280;62152;52.078;8.414;2023-05-09T02:47:13;100306.25;;;19.84;50.76
56514;BME280;62152;52.078;8.414;2023-05-09T02:51:15;100303.50;;;19.84;51.18
56514;BME280;62152;52.078;8.414;2023-05-09T02:55:15;100299.94;;;19.83;51.06
56514;BME280;62152;52.078;8.414;2023-05-09T02:59:18;100290.09;;;19.82;50.87
56514;BME280;62152;52.078;8.414;2023-05-09T03:03:19;100289.72;;;19.84;51.09
56514;BME280;62152;52.078;8.414;2023-05-09T03:07:22;100291.69;;;19.83;50.90
56514;BME280;62152;52.078;8.414;2023-05-09T03:11:23;100287.31;;;19.82;51.02
56514;BME280;62152;52.078;8.414;2023-05-09T03:15:24;100279.88;;;19.83;50.43
56514;BME280;62152;52.078;8.414;2023-05-09T03:19:25;100277.50;;;19.81;50.40
56514;BME280;62152;52.078;8.414;2023-05-09T03:23:27;100277.09;;;19.83;50.75
56514;BME280;62152;52.078;8.414;2023-05-09T03:27:28;100271.25;;;19.84;50.83
56514;BME280;62152;52.078;8.414;2023-05-09T03:31:29;100269.28;;;19.85;51.05
56514;BME280;62152;52.078;8.414;2023-05-09T03:35:30;100261.41;;;19.83;51.20
56514;BME280;62152;52.078;8.414;2023-05-09T03:39:32;100258.22;;;19.81;50.60
56514;BME280;62152;52.078;8.414;2023-05-09T03:43:33;100263.72;;;19.81;51.07
56514;BME280;62152;52.078;8.414;2023-05-09T03:47:34;100261.78;;;19.82;50.69
56514;BME280;62152;52.078;8.414;2023-05-09T03:51:35;100260.19;;;19.81;50.47
56514;BME280;62152;52.078;8.414;2023-05-09T03:55:40;100253.50;;;19.82;50.78
56514;BME280;62152;52.078;8.414;2023-05-09T03:59:42;100251.94;;;19.81;50.44
56514;BME280;62152;52.078;8.414;2023-05-09T04:03:43;100251.91;;;19.77;50.76
56514;BME280;62152;52.078;8.414;2023-05-09T04:07:45;100257.25;;;19.63;48.99
56514;BME280;62152;52.078;8.414;2023-05-09T04:11:49;100245.59;;;19.17;48.35
56514;BME280;62152;52.078;8.414;2023-05-09T04:15:50;100253.78;;;19.13;47.84
56514;BME280;62152;52.078;8.414;2023-05-09T04:19:51;100246.72;;;19.42;48.26
56514;BME280;62152;52.078;8.414;2023-05-09T04:23:52;100243.38;;;19.56;48.83
56514;BME280;62152;52.078;8.414;2023-05-09T04:28:00;100249.00;;;19.63;48.55
56514;BME280;62152;52.078;8.414;2023-05-09T04:32:01;100252.97;;;19.69;47.84
56514;BME280;62152;52.078;8.414;2023-05-09T04:36:03;100245.16;;;19.71;48.06
56514;BME280;62152;52.078;8.414;2023-05-09T04:40:06;100235.72;;;19.72;48.20
56514;BME280;62152;52.078;8.414;2023-05-09T04:44:15;100243.59;;;19.74;47.95
56514;BME280;62152;52.078;8.414;2023-05-09T04:48:17;100236.13;;;19.74;48.44
56514;BME280;62152;52.078;8.414;2023-05-09T04:52:18;100248.72;;;19.75;48.18
56514;BME280;62152;52.078;8.414;2023-05-09T04:56:19;100249.50;;;19.76;48.30
56514;BME280;62152;52.078;8.414;2023-05-09T05:00:23;100234.97;;;19.75;48.20
56514;BME280;62152;52.078;8.414;2023-05-09T05:04:24;100231.84;;;19.77;48.94
56514;BME280;62152;52.078;8.414;2023-05-09T05:08:26;100224.38;;;19.77;48.45
56514;BME280;62152;52.078;8.414;2023-05-09T05:12:27;100223.22;;;19.78;48.58
56514;BME280;62152;52.078;8.414;2023-05-09T05:16:30;100224.78;;;19.79;48.78
56514;BME280;62152;52.078;8.414;2023-05-09T05:20:31;100217.31;;;19.80;48.65
56514;BME280;62152;52.078;8.414;2023-05-09T05:24:32;100220.06;;;19.80;48.95
56514;BME280;62152;52.078;8.414;2023-05-09T05:28:33;100216.53;;;19.79;49.02
56514;BME280;62152;52.078;8.414;2023-05-09T05:32:36;100204.75;;;19.79;48.72
56514;BME280;62152;52.078;8.414;2023-05-09T05:36:37;100205.53;;;19.79;48.67
56514;BME280;62152;52.078;8.414;2023-05-09T05:40:38;100198.84;;;19.80;49.20
56514;BME280;62152;52.078;8.414;2023-05-09T05:44:41;100197.69;;;19.81;48.91
56514;BME280;62152;52.078;8.414;2023-05-09T05:48:43;100184.69;;;19.82;49.18
56514;BME280;62152;52.078;8.414;2023-05-09T05:52:44;100178.03;;;19.83;49.18
56514;BME280;62152;52.078;8.414;2023-05-09T05:56:48;100179.63;;;19.84;48.74
56514;BME280;62152;52.078;8.414;2023-05-09T06:00:50;100182.00;;;19.85;48.78
56514;BME280;62152;52.078;8.414;2023-05-09T06:04:52;100182.00;;;19.85;49.13
56514;BME280;62152;52.078;8.414;2023-05-09T06:08:53;100179.66;;;19.87;48.89
56514;BME280;62152;52.078;8.414;2023-05-09T06:12:54;100180.84;;;19.86;48.68
56514;BME280;62152;52.078;8.414;2023-05-09T06:16:57;100173.75;;;19.89;48.72
56514;BME280;62152;52.078;8.414;2023-05-09T06:20:59;100168.66;;;19.87;49.35
56514;BME280;62152;52.078;8.414;2023-05-09T06:25:00;100163.94;;;19.88;48.68
56514;BME280;62152;52.078;8.414;2023-05-09T06:29:01;100160.38;;;19.87;49.18
56514;BME280;62152;52.078;8.414;2023-05-09T06:33:02;100156.84;;;19.87;49.05
56514;BME280;62152;52.078;8.414;2023-05-09T06:37:04;100146.63;;;19.87;48.77
56514;BME280;62152;52.078;8.414;2023-05-09T06:41:05;100142.28;;;19.86;49.28
56514;BME280;62152;52.078;8.414;2023-05-09T06:45:07;100143.88;;;19.87;48.76
56514;BME280;62152;52.078;8.414;2023-05-09T06:49:08;100135.22;;;19.85;48.84
56514;BME280;62152;52.078;8.414;2023-05-09T06:53:10;100135.63;;;19.87;48.98
56514;BME280;62152;52.078;8.414;2023-05-09T06:57:11;100133.66;;;19.88;49.42
56514;BME280;62152;52.078;8.414;2023-05-09T07:01:12;100120.69;;;19.88;49.11
56514;BME280;62152;52.078;8.414;2023-05-09T07:05:13;100115.16;;;19.88;49.32
56514;BME280;62152;52.078;8.414;2023-05-09T07:09:15;100106.91;;;19.88;49.26
56514;BME280;62152;52.078;8.414;2023-05-09T07:13:15;100101.84;;;19.90;48.86
56514;BME280;62152;52.078;8.414;2023-05-09T07:17:16;100096.34;;;19.90;49.03
56514;BME280;62152;52.078;8.414;2023-05-09T07:21:17;100097.91;;;19.91;49.13
56514;BME280;62152;52.078;8.414;2023-05-09T07:25:19;100086.47;;;19.89;49.00
56514;BME280;62152;52.078;8.414;2023-05-09T07:29:20;100088.09;;;19.90;49.31
56514;BME280;62152;52.078;8.414;2023-05-09T07:33:21;100087.25;;;19.90;48.90
56514;BME280;62152;52.078;8.414;2023-05-09T07:37:22;100074.31;;;19.90;48.85
56514;BME280;62152;52.078;8.414;2023-05-09T07:41:24;100068.03;;;19.93;48.75
56514;BME280;62152;52.078;8.414;2023-05-09T07:45:25;100066.06;;;19.94;49.08
56514;BME280;62152;52.078;8.414;2023-05-09T07:49:26;100058.19;;;19.92;49.40
56514;BME280;62152;52.078;8.414;2023-05-09T07:53:26;100053.47;;;19.93;48.72
56514;BME280;62152;52.078;8.414;2023-05-09T07:57:29;100051.53;;;19.93;48.87
56514;BME280;62152;52.078;8.414;2023-05-09T08:01:30;100045.25;;;19.97;48.81
56514;BME280;62152;52.078;8.414;2023-05-09T08:05:30;100042.50;;;19.97;48.75
56514;BME280;62152;52.078;8.414;2023-05-09T08:09:31;100040.56;;;19.97;48.74
56514;BME280;62152;52.078;8.414;2023-05-09T08:13:33;100034.22;;;19.97;49.40
56514;BME280;62152;52.078;8.414;2023-05-09T08:17:34;100035.03;;;19.97;49.15
56514;BME280;62152;52.078;8.414;2023-05-09T08:21:35;100027.19;;;19.99;49.31
56514;BME280;62152;52.078;8.414;2023-05-09T08:25:36;100013.03;;;20.01;49.31
56514;BME280;62152;52.078;8.414;2023-05-09T08:29:38;100017.75;;;20.00;49.09
56514;BME280;62152;52.078;8.414;2023-05-09T08:41:41;100013.03;;;20.01;49.39
56514;BME280;62152;52.078;8.414;2023-05-09T08:49:58;99996.50;;;20.01;48.93
56514;BME280;62152;52.078;8.414;2023-05-09T08:53:59;100007.53;;;20.01;49.08
56514;BME280;62152;52.078;8.414;2023-05-09T08:58:00;100003.59;;;19.98;48.80
56514;BME280;62152;52.078;8.414;2023-05-09T09:02:06;99999.25;;;19.97;49.28
56514;BME280;62152;52.078;8.414;2023-05-09T09:06:08;99988.25;;;19.97;49.11
56514;BME280;62152;52.078;8.414;2023-05-09T09:10:10;99988.59;;;19.95;49.44
56514;BME280;62152;52.078;8.414;2023-05-09T09:14:22;99981.13;;;19.96;48.91
56514;BME280;62152;52.078;8.414;2023-05-09T09:18:28;99976.41;;;19.97;49.45
56514;BME280;62152;52.078;8.414;2023-05-09T09:22:32;99970.94;;;20.00;48.95
56514;BME280;62152;52.078;8.414;2023-05-09T09:26:45;99963.09;;;20.02;49.33
56514;BME280;62152;52.078;8.414;2023-05-09T09:30:47;99958.78;;;20.05;48.70
56514;BME280;62152;52.078;8.414;2023-05-09T09:34:49;99953.69;;;20.07;49.12
56514;BME280;62152;52.078;8.414;2023-05-09T09:38:50;99955.25;;;20.08;48.91
56514;BME280;62152;52.078;8.414;2023-05-09T09:42:56;99943.84;;;20.09;49.06
56514;BME280;62152;52.078;8.414;2023-05-09T09:46:57;99937.56;;;20.09;48.97
56514;BME280;62152;52.078;8.414;2023-05-09T09:51:02;99930.88;;;20.10;49.33
56514;BME280;62152;52.078;8.414;2023-05-09T09:55:08;99927.75;;;20.11;49.24
56514;BME280;62152;52.078;8.414;2023-05-09T09:59:10;99918.72;;;20.11;48.72
56514;BME280;62152;52.078;8.414;2023-05-09T10:03:14;99919.09;;;20.13;48.42
56514;BME280;62152;52.078;8.414;2023-05-09T10:07:21;99919.09;;;20.13;48.83
56514;BME280;62152;52.078;8.414;2023-05-09T10:11:22;99908.09;;;20.13;48.69
56514;BME280;62152;52.078;8.414;2023-05-09T10:15:24;99903.38;;;20.13;49.01
56514;BME280;62152;52.078;8.414;2023-05-09T10:19:26;99896.28;;;20.12;49.11
56514;BME280;62152;52.078;8.414;2023-05-09T10:23:33;99901.41;;;20.14;48.72
56514;BME280;62152;52.078;8.414;2023-05-09T10:27:40;99894.31;;;20.13;49.11
56514;BME280;62152;52.078;8.414;2023-05-09T10:31:44;99890.41;;;20.14;49.18
56514;BME280;62152;52.078;8.414;2023-05-09T10:35:46;99884.88;;;20.14;49.26
56514;BME280;62152;52.078;8.414;2023-05-09T10:39:49;99873.09;;;20.13;49.15
56514;BME280;62152;52.078;8.414;2023-05-09T10:43:50;99868.75;;;20.12;49.19
56514;BME280;62152;52.078;8.414;2023-05-09T10:47:52;99866.00;;;20.12;49.21
56514;BME280;62152;52.078;8.414;2023-05-09T10:51:54;99866.00;;;20.12;48.76
56514;BME280;62152;52.078;8.414;2023-05-09T10:55:57;99843.19;;;20.12;49.18
56514;BME280;62152;52.078;8.414;2023-05-09T10:59:58;99835.31;;;20.14;48.57
56514;BME280;62152;52.078;8.414;2023-05-09T11:04:01;99834.16;;;20.15;48.54
56514;BME280;62152;52.078;8.414;2023-05-09T11:08:19;99825.13;;;20.18;48.62
56514;BME280;62152;52.078;8.414;2023-05-09T11:12:22;99814.91;;;20.18;49.04
56514;BME280;62152;52.078;8.414;2023-05-09T11:16:25;99818.03;;;20.20;48.68
56514;BME280;62152;52.078;8.414;2023-05-09T11:20:27;99814.50;;;20.20;49.05
56514;BME280;62152;52.078;8.414;2023-05-09T11:24:30;99806.25;;;20.20;48.53
56514;BME280;62152;52.078;8.414;2023-05-09T11:28:34;99796.78;;;20.21;48.64
56514;BME280;62152;52.078;8.414;2023-05-09T11:32:46;99794.03;;;20.21;48.41
56514;BME280;62152;52.078;8.414;2023-05-09T11:37:06;99783.41;;;20.23;48.95
56514;BME280;62152;52.078;8.414;2023-05-09T11:41:09;99788.16;;;20.30;48.91
56514;BME280;62152;52.078;8.414;2023-05-09T11:45:12;99779.88;;;20.30;48.96
56514;BME280;62152;52.078;8.414;2023-05-09T11:49:14;99770.06;;;20.29;48.48
56514;BME280;62152;52.078;8.414;2023-05-09T11:53:15;99767.69;;;20.27;48.45
56514;BME280;62152;52.078;8.414;2023-05-09T11:57:16;99762.97;;;20.28;48.82
56514;BME280;62152;52.078;8.414;2023-05-09T12:01:19;99761.41;;;20.27;48.64
56514;BME280;62152;52.078;8.414;2023-05-09T12:05:21;99756.66;;;20.23;48.99
56514;BME280;62152;52.078;8.414;2023-05-09T12:09:23;99751.94;;;20.20;49.08
56514;BME280;62152;52.078;8.414;2023-05-09T12:13:24;99740.16;;;20.20;48.82
56514;BME280;62152;52.078;8.414;2023-05-09T12:17:27;99735.03;;;20.22;48.52
56514;BME280;62152;52.078;8.414;2023-05-09T12:21:27;99727.97;;;20.21;48.84
56514;BME280;62152;52.078;8.414;2023-05-09T12:25:28;99721.66;;;20.20;48.84
56514;BME280;62152;52.078;8.414;2023-05-09T12:29:30;99711.81;;;20.23;48.97
56514;BME280;62152;52.078;8.414;2023-05-09T12:33:32;99703.19;;;20.25;48.96
56514;BME280;62152;52.078;8.414;2023-05-09T12:37:34;99703.97;;;20.25;49.04
56514;BME280;62152;52.078;8.414;2023-05-09T12:41:42;99696.88;;;20.24;48.80
56514;BME280;62152;52.078;8.414;2023-05-09T12:45:43;99690.59;;;20.27;48.67
56514;BME280;62152;52.078;8.414;2023-05-09T12:49:48;99692.19;;;20.25;48.43
56514;BME280;62152;52.078;8.414;2023-05-09T12:53:49;99693.75;;;20.26;48.92
56514;BME280;62152;52.078;8.414;2023-05-09T12:57:57;99683.53;;;20.33;48.56
56514;BME280;62152;52.078;8.414;2023-05-09T13:02:00;99678.00;;;20.33;48.50
56514;BME280;62152;52.078;8.414;2023-05-09T13:06:03;99666.22;;;20.33;48.80
56514;BME280;62152;52.078;8.414;2023-05-09T13:10:09;99656.75;;;20.34;48.85
56514;BME280;62152;52.078;8.414;2023-05-09T13:14:11;99655.19;;;20.36;48.52
56514;BME280;62152;52.078;8.414;2023-05-09T13:18:12;99650.09;;;20.38;48.18
56514;BME280;62152;52.078;8.414;2023-05-09T13:22:14;99653.19;;;20.37;48.16
56514;BME280;62152;52.078;8.414;2023-05-09T13:26:16;99647.31;;;20.38;48.85
56514;BME280;62152;52.078;8.414;2023-05-09T13:30:17;99637.09;;;20.35;48.39
56514;BME280;62152;52.078;8.414;2023-05-09T13:34:18;99630.00;;;20.34;48.86
56514;BME280;62152;52.078;8.414;2023-05-09T13:38:20;99612.69;;;20.37;48.18
56514;BME280;62152;52.078;8.414;2023-05-09T13:42:21;99615.84;;;20.39;48.40
56514;BME280;62152;52.078;8.414;2023-05-09T13:46:22;99599.69;;;20.38;48.75
56514;BME280;62152;52.078;8.414;2023-05-09T13:50:23;99594.59;;;20.36;48.67
56514;BME280;62152;52.078;8.414;2023-05-09T13:54:25;99587.91;;;20.34;48.86
56514;BME280;62152;52.078;8.414;2023-05-09T13:58:26;99582.38;;;20.30;48.67
56514;BME280;62152;52.078;8.414;2023-05-09T14:02:27;99584.38;;;20.30;49.02
56514;BME280;62152;52.078;8.414;2023-05-09T14:06:27;99600.13;;;20.26;48.64
56514;BME280;62152;52.078;8.414;2023-05-09T14:10:30;99582.41;;;20.23;48.85
56514;BME280;62152;52.078;8.414;2023-05-09T14:14:30;99598.53;;;20.21;49.03
56514;BME280;62152;52.078;8.414;2023-05-09T14:18:31;99609.56;;;20.21;48.76
56514;BME280;62152;52.078;8.414;2023-05-09T14:22:32;99600.50;;;20.20;49.22
56514;BME280;62152;52.078;8.414;2023-05-09T14:26:34;99594.22;;;20.20;49.26
56514;BME280;62152;52.078;8.414;2023-05-09T14:30:35;99581.63;;;20.19;49.35
56514;BME280;62152;52.078;8.414;2023-05-09T14:34:36;99574.94;;;20.20;48.66
56514;BME280;62152;52.078;8.414;2023-05-09T14:38:37;99569.03;;;20.21;48.78
56514;BME280;62152;52.078;8.414;2023-05-09T14:42:39;99558.41;;;20.23;49.15
56514;BME280;62152;52.078;8.414;2023-05-09T14:46:40;99559.19;;;20.24;49.08
56514;BME280;62152;52.078;8.414;2023-05-09T14:50:41;99552.91;;;20.27;48.62
56514;BME280;62152;52.078;8.414;2023-05-09T14:54:42;99544.25;;;20.25;49.13
56514;BME280;62152;52.078;8.414;2023-05-09T14:58:44;99543.06;;;20.22;49.25
56514;BME280;62152;52.078;8.414;2023-05-09T15:02:45;99541.13;;;20.19;49.04
56514;BME280;62152;52.078;8.414;2023-05-09T15:06:45;99532.44;;;20.17;49.30
56514;BME280;62152;52.078;8.414;2023-05-09T15:10:46;99538.78;;;20.18;48.98
56514;BME280;62152;52.078;8.414;2023-05-09T15:14:48;99520.66;;;20.17;48.86
56514;BME280;62152;52.078;8.414;2023-05-09T15:18:49;99519.88;;;20.16;49.75
56514;BME280;62152;52.078;8.414;2023-05-09T15:22:50;99516.34;;;20.16;49.88
56514;BME280;62152;52.078;8.414;2023-05-09T15:26:51;99510.44;;;20.14;50.48
56514;BME280;62152;52.078;8.414;2023-05-09T15:30:53;99502.19;;;20.14;50.65
56514;BME280;62152;52.078;8.414;2023-05-09T15:34:54;99502.97;;;20.14;51.06
56514;BME280;62152;52.078;8.414;2023-05-09T15:38:55;99502.59;;;20.12;51.24
56514;BME280;62152;52.078;8.414;2023-05-09T15:42:55;99496.31;;;20.12;51.45
56514;BME280;62152;52.078;8.414;2023-05-09T15:46:58;99493.94;;;20.14;52.11
56514;BME280;62152;52.078;8.414;2023-05-09T15:50:58;99485.28;;;20.12;51.71
56514;BME280;62152;52.078;8.414;2023-05-09T15:54:59;99484.47;;;20.15;52.10
56514;BME280;62152;52.078;8.414;2023-05-09T15:59:01;99472.28;;;20.16;52.84
56514;BME280;62152;52.078;8.414;2023-05-09T16:03:03;99478.56;;;20.16;52.38
56514;BME280;62152;52.078;8.414;2023-05-09T16:07:04;99473.84;;;20.17;52.69
56514;BME280;62152;52.078;8.414;2023-05-09T16:11:05;99477.78;;;20.16;52.69
56514;BME280;62152;52.078;8.414;2023-05-09T16:15:07;99471.53;;;20.12;53.63
56514;BME280;62152;52.078;8.414;2023-05-09T16:19:10;99471.09;;;20.17;52.70
56514;BME280;62152;52.078;8.414;2023-05-09T16:23:12;99464.03;;;20.19;52.75
56514;BME280;62152;52.078;8.414;2023-05-09T16:27:13;99462.84;;;20.20;52.05
56514;BME280;62152;52.078;8.414;2023-05-09T16:31:14;99464.81;;;20.20;51.80
56514;BME280;62152;52.078;8.414;2023-05-09T16:35:16;99467.97;;;20.18;52.97
56514;BME280;62152;52.078;8.414;2023-05-09T16:39:17;99456.16;;;20.18;52.61
56514;BME280;62152;52.078;8.414;2023-05-09T16:43:18;99452.22;;;20.19;52.67
56514;BME280;62152;52.078;8.414;2023-05-09T16:47:18;99457.72;;;20.19;52.34
56514;BME280;62152;52.078;8.414;2023-05-09T16:51:21;99454.19;;;20.18;52.43
56514;BME280;62152;52.078;8.414;2023-05-09T16:55:22;99447.50;;;20.16;52.07
56514;BME280;62152;52.078;8.414;2023-05-09T16:59:22;99445.94;;;20.15;52.63
56514;BME280;62152;52.078;8.414;2023-05-09T17:03:23;99449.88;;;20.14;52.29
56514;BME280;62152;52.078;8.414;2023-05-09T17:07:25;99443.59;;;20.13;52.73
56514;BME280;62152;52.078;8.414;2023-05-09T17:11:26;99446.75;;;20.12;53.60
56514;BME280;62152;52.078;8.414;2023-05-09T17:15:27;99455.38;;;20.10;53.18
56514;BME280;62152;52.078;8.414;2023-05-09T17:19:28;99461.69;;;20.11;53.60
56514;BME280;62152;52.078;8.414;2023-05-09T17:23:30;99462.84;;;20.10;53.09
56514;BME280;62152;52.078;8.414;2023-05-09T17:27:31;99455.78;;;20.09;53.86
56514;BME280;62152;52.078;8.414;2023-05-09T17:31:32;99458.53;;;20.09;53.46
56514;BME280;62152;52.078;8.414;2023-05-09T17:35:33;99457.75;;;20.08;53.64
56514;BME280;62152;52.078;8.414;2023-05-09T17:39:35;99449.09;;;20.10;54.39
56514;BME280;62152;52.078;8.414;2023-05-09T17:43:36;99446.75;;;20.12;53.60
56514;BME280;62152;52.078;8.414;2023-05-09T17:47:37;99440.44;;;20.11;53.26
56514;BME280;62152;52.078;8.414;2023-05-09T17:51:37;99438.06;;;20.10;53.95
56514;BME280;62152;52.078;8.414;2023-05-09T17:55:41;99434.53;;;20.13;54.29
56514;BME280;62152;52.078;8.414;2023-05-09T17:59:42;99421.53;;;20.17;55.09
56514;BME280;62152;52.078;8.414;2023-05-09T18:03:43;99428.63;;;20.18;55.63
56514;BME280;62152;52.078;8.414;2023-05-09T18:07:44;99431.38;;;20.18;55.04
56514;BME280;62152;52.078;8.414;2023-05-09T18:11:46;99421.53;;;20.17;54.96
56514;BME280;62152;52.078;8.414;2023-05-09T18:15:47;99419.56;;;20.17;54.77
56514;BME280;62152;52.078;8.414;2023-05-09T18:19:48;99415.25;;;20.16;54.85
56514;BME280;62152;52.078;8.414;2023-05-09T18:23:49;99419.97;;;20.16;54.83
56514;BME280;62152;52.078;8.414;2023-05-09T18:27:51;99424.69;;;20.15;54.49
56514;BME280;62152;52.078;8.414;2023-05-09T18:31:52;99419.97;;;20.16;54.20
56514;BME280;62152;52.078;8.414;2023-05-09T18:35:53;99419.19;;;20.15;55.26
56514;BME280;62152;52.078;8.414;2023-05-09T18:39:54;99424.69;;;20.15;54.75
56514;BME280;62152;52.078;8.414;2023-05-09T18:43:57;99423.91;;;20.15;54.89
56514;BME280;62152;52.078;8.414;2023-05-09T18:47:57;99422.34;;;20.14;54.14
56514;BME280;62152;52.078;8.414;2023-05-09T18:51:58;99431.38;;;20.14;54.74
56514;BME280;62152;52.078;8.414;2023-05-09T18:55:59;99427.84;;;20.14;54.55
56514;BME280;62152;52.078;8.414;2023-05-09T19:00:01;99431.38;;;20.14;54.42
56514;BME280;62152;52.078;8.414;2023-05-09T19:04:02;99437.69;;;20.15;54.07
56514;BME280;62152;52.078;8.414;2023-05-09T19:08:04;99422.34;;;20.14;54.00
56514;BME280;62152;52.078;8.414;2023-05-09T19:12:05;99439.66;;;20.14;53.71
56514;BME280;62152;52.078;8.414;2023-05-09T19:16:07;99436.91;;;20.14;54.22
56514;BME280;62152;52.078;8.414;2023-05-09T19:20:09;99433.75;;;20.12;54.44
56514;BME280;62152;52.078;8.414;2023-05-09T19:24:10;99432.56;;;20.13;54.22
56514;BME280;62152;52.078;8.414;2023-05-09T19:28:11;99426.28;;;20.13;54.21
56514;BME280;62152;52.078;8.414;2023-05-09T19:32:13;99422.75;;;20.12;54.50
56514;BME280;62152;52.078;8.414;2023-05-09T19:36:14;99413.72;;;20.12;54.55
56514;BME280;62152;52.078;8.414;2023-05-09T19:40:15;99412.94;;;20.11;53.87
56514;BME280;62152;52.078;8.414;2023-05-09T19:44:16;99414.50;;;20.12;54.17
56514;BME280;62152;52.078;8.414;2023-05-09T19:48:18;99407.41;;;20.11;53.79
56514;BME280;62152;52.078;8.414;2023-05-09T19:52:19;99409.38;;;20.11;53.90
56514;BME280;62152;52.078;8.414;2023-05-09T19:56:20;99408.19;;;20.12;53.86
56514;BME280;62152;52.078;8.414;2023-05-09T20:00:21;99402.69;;;20.12;53.86
56514;BME280;62152;52.078;8.414;2023-05-09T20:04:23;99390.13;;;20.11;53.77
56514;BME280;62152;52.078;8.414;2023-05-09T20:08:24;99379.09;;;20.11;54.48
56514;BME280;62152;52.078;8.414;2023-05-09T20:12:24;99398.38;;;20.11;53.71
56514;BME280;62152;52.078;8.414;2023-05-09T20:16:25;99401.91;;;20.11;53.99
56514;BME280;62152;52.078;8.414;2023-05-09T20:20:28;99415.28;;;20.09;53.57
56514;BME280;62152;52.078;8.414;2023-05-09T20:24:29;99418.81;;;20.10;53.29
56514;BME280;62152;52.078;8.414;2023-05-09T20:28:31;99418.81;;;20.10;54.39
56514;BME280;62152;52.078;8.414;2023-05-09T20:32:32;99417.66;;;20.11;54.03
56514;BME280;62152;52.078;8.414;2023-05-09T20:36:34;99424.31;;;20.10;53.50
56514;BME280;62152;52.078;8.414;2023-05-09T20:40:35;99411.34;;;20.10;54.19
56514;BME280;62152;52.078;8.414;2023-05-09T20:44:36;99412.16;;;20.11;54.30
56514;BME280;62152;52.078;8.414;2023-05-09T20:48:37;99414.50;;;20.09;54.05
56514;BME280;62152;52.078;8.414;2023-05-09T20:52:39;99414.50;;;20.09;53.55
56514;BME280;62152;52.078;8.414;2023-05-09T20:56:40;99402.31;;;20.06;54.09
56514;BME280;62152;52.078;8.414;2023-05-09T21:00:41;99400.34;;;20.07;53.87
56514;BME280;62152;52.078;8.414;2023-05-09T21:04:41;99398.78;;;20.06;54.00
56514;BME280;62152;52.078;8.414;2023-05-09T21:08:44;99390.53;;;20.06;53.34
56514;BME280;62152;52.078;8.414;2023-05-09T21:12:44;99388.56;;;20.06;53.42
56514;BME280;62152;52.078;8.414;2023-05-09T21:16:45;99368.50;;;20.06;53.76
56514;BME280;62152;52.078;8.414;2023-05-09T21:20:46;99382.25;;;20.06;53.20
56514;BME280;62152;52.078;8.414;2023-05-09T21:24:48;99379.50;;;20.06;52.70